Time;durP1;ratioP1;P1;durP2;ratioP2;P2;SDS_P1;SDS_P2;PMS_P1;PMS_P2;Temp;Humidity;BMP_temperature;BMP_pressure;BME280_temperature;BME280_humidity;BME280_pressure;Samples;Min_cycle;Max_cycle;Signal;HPM_P1;HPM_P2
2024/01/02 00:01:32;;;;;;;17.10;2.70;;;7.60;99.90;;;;;;5029236;28;20099;-38
2024/01/02 00:03:57;;;;;;;15.55;1.83;;;7.60;99.90;;;;;;5030438;28;20026;-37
2024/01/02 00:06:23;;;;;;;3.42;1.20;;;7.60;99.90;;;;;;5030070;28;20029;-37
2024/01/02 00:08:48;;;;;;;8.48;2.15;;;7.60;99.90;;;;;;5030936;28;20038;-38
2024/01/02 00:11:14;;;;;;;11.32;2.08;;;7.60;99.90;;;;;;5032453;28;20478;-38
2024/01/02 00:13:40;;;;;;;10.27;1.30;;;7.60;99.90;;;;;;5035505;28;20025;-39
2024/01/02 00:16:05;;;;;;;8.85;1.40;;;7.60;99.90;;;;;;5034773;28;20025;-46
2024/01/02 00:18:31;;;;;;;7.30;2.22;;;7.60;99.90;;;;;;5031879;28;20126;-38
2024/01/02 00:20:57;;;;;;;4.95;1.15;;;7.60;99.90;;;;;;5024022;28;20018;-38
2024/01/02 00:23:22;;;;;;;13.93;1.58;;;7.60;99.90;;;;;;5036505;28;20545;-39
2024/01/02 00:25:48;;;;;;;7.57;1.65;;;7.60;99.90;;;;;;5035917;28;20033;-39
2024/01/02 00:28:14;;;;;;;11.65;2.38;;;7.70;99.90;;;;;;5036366;28;20026;-38
2024/01/02 00:30:40;;;;;;;7.63;1.40;;;7.60;99.90;;;;;;5036011;28;20021;-41
2024/01/02 00:33:08;;;;;;;9.48;1.42;;;7.70;99.90;;;;;;5036338;28;20551;-40
2024/01/02 00:35:34;;;;;;;13.40;1.60;;;7.70;99.90;;;;;;5036272;28;20437;-41
2024/01/02 00:38:00;;;;;;;4.20;1.50;;;7.70;99.90;;;;;;5036332;28;20026;-38
2024/01/02 00:40:26;;;;;;;6.47;1.15;;;7.70;99.90;;;;;;5024777;28;20030;-38
2024/01/02 00:42:51;;;;;;;4.47;1.15;;;7.70;99.90;;;;;;5016289;28;20510;-38
2024/01/02 00:45:17;;;;;;;12.43;1.55;;;7.70;99.90;;;;;;5016211;28;20026;-37
2024/01/02 00:47:43;;;;;;;9.77;1.85;;;7.70;99.90;;;;;;5032562;28;20026;-37
2024/01/02 00:50:09;;;;;;;5.10;1.10;;;7.70;99.90;;;;;;5036000;28;20032;-42
2024/01/02 00:52:35;;;;;;;9.27;1.20;;;7.60;99.90;;;;;;5035952;28;20040;-39
2024/01/02 00:55:02;;;;;;;3.13;0.77;;;7.70;99.90;;;;;;5035511;28;20577;-38
2024/01/02 00:57:28;;;;;;;11.13;1.27;;;7.70;99.90;;;;;;5035919;28;20076;-39
2024/01/02 00:59:54;;;;;;;6.22;1.58;;;7.70;99.90;;;;;;5035812;28;20061;-38
2024/01/02 01:02:19;;;;;;;7.10;0.98;;;7.70;99.90;;;;;;5034156;28;20052;-38
2024/01/02 01:04:48;;;;;;;6.13;1.83;;;7.70;99.90;;;;;;5035667;28;20116;-42
2024/01/02 01:07:14;;;;;;;3.63;1.55;;;7.70;99.90;;;;;;5035424;28;20043;-38
2024/01/02 01:09:39;;;;;;;7.00;1.17;;;7.70;99.90;;;;;;5035273;28;20549;-41
2024/01/02 01:12:06;;;;;;;8.88;1.52;;;7.70;99.90;;;;;;5024365;28;20393;-41
2024/01/02 01:14:31;;;;;;;2.25;0.70;;;7.70;99.90;;;;;;5033527;28;20482;-40
2024/01/02 01:16:58;;;;;;;4.43;1.17;;;7.80;99.90;;;;;;5032541;28;20028;-38
2024/01/02 01:19:25;;;;;;;1.20;0.80;;;7.80;99.90;;;;;;5015468;28;20379;-36
2024/01/02 01:21:51;;;;;;;4.97;1.45;;;7.80;99.90;;;;;;5021440;28;20025;-37
2024/01/02 01:24:17;;;;;;;3.03;1.10;;;7.90;99.90;;;;;;5035248;28;20375;-37
2024/01/02 01:26:42;;;;;;;8.75;0.90;;;7.80;99.90;;;;;;5035139;28;20037;-38
2024/01/02 01:29:09;;;;;;;5.07;1.67;;;7.80;99.90;;;;;;5035130;28;20026;-35
2024/01/02 01:31:34;;;;;;;2.58;1.25;;;7.80;99.90;;;;;;5035520;28;20485;-35
2024/01/02 01:34:00;;;;;;;6.60;1.00;;;7.80;99.90;;;;;;5035286;28;20038;-38
2024/01/02 01:36:26;;;;;;;1.77;0.55;;;7.90;99.90;;;;;;5033767;28;20478;-37
2024/01/02 01:38:52;;;;;;;5.65;0.80;;;7.80;99.90;;;;;;5034900;28;20433;-36
2024/01/02 01:41:18;;;;;;;3.58;0.85;;;7.90;99.90;;;;;;5034700;28;20139;-34
2024/01/02 01:43:46;;;;;;;1.25;1.15;;;7.90;99.90;;;;;;5034918;28;20468;-35
2024/01/02 01:46:14;;;;;;;5.97;0.90;;;7.80;99.90;;;;;;5024447;28;20037;-35
2024/01/02 01:48:40;;;;;;;8.07;0.63;;;7.80;99.90;;;;;;5034990;28;20500;-36
2024/01/02 01:51:06;;;;;;;7.18;0.80;;;7.90;99.90;;;;;;5035146;28;20083;-35
2024/01/02 01:53:32;;;;;;;2.58;1.02;;;7.90;99.90;;;;;;5034582;28;20482;-34
2024/01/02 01:55:59;;;;;;;2.05;0.60;;;8.00;99.90;;;;;;5034378;28;20474;-33
2024/01/02 01:58:26;;;;;;;2.08;0.75;;;8.00;99.90;;;;;;5013659;28;20030;-34
2024/01/02 02:00:51;;;;;;;5.43;0.68;;;8.00;99.90;;;;;;5032254;28;20021;-33
2024/01/02 02:03:18;;;;;;;9.75;0.90;;;7.90;99.90;;;;;;5033434;28;20497;-34
2024/01/02 02:05:45;;;;;;;6.55;0.63;;;7.90;99.90;;;;;;5033452;28;20208;-36
2024/01/02 02:08:10;;;;;;;2.15;0.77;;;7.80;99.90;;;;;;5033902;28;20106;-34
2024/01/02 02:10:36;;;;;;;0.60;0.60;;;7.80;99.90;;;;;;5033971;28;20490;-35
2024/01/02 02:13:02;;;;;;;3.45;0.40;;;7.90;99.90;;;;;;5034212;28;20025;-35
2024/01/02 02:15:28;;;;;;;4.50;0.43;;;7.80;99.90;;;;;;5033827;28;20036;-35
2024/01/02 02:17:54;;;;;;;3.05;0.77;;;7.90;99.90;;;;;;5034034;28;20041;-41
2024/01/02 02:20:19;;;;;;;3.40;0.45;;;7.90;99.90;;;;;;5033460;28;20032;-36
2024/01/02 02:22:49;;;;;;;3.50;0.30;;;7.90;99.90;;;;;;5033458;28;20068;-33
2024/01/02 02:25:16;;;;;;;4.18;0.50;;;8.00;99.90;;;;;;5033830;28;20033;-35
2024/01/02 02:27:44;;;;;;;2.28;0.30;;;8.00;99.90;;;;;;5034206;28;20033;-35
2024/01/02 02:30:10;;;;;;;7.93;0.23;;;8.00;99.90;;;;;;5034178;28;20030;-34
2024/01/02 02:32:35;;;;;;;0.60;0.35;;;8.00;99.90;;;;;;5033851;28;20359;-33
2024/01/02 02:35:01;;;;;;;2.60;0.45;;;8.00;99.90;;;;;;5033402;28;20513;-33
2024/01/02 02:37:27;;;;;;;0.35;0.30;;;8.00;99.90;;;;;;5033827;28;20406;-46
2024/01/02 02:39:52;;;;;;;5.05;0.45;;;8.00;99.90;;;;;;5033672;28;20117;-53
2024/01/02 02:42:18;;;;;;;1.65;0.30;;;8.00;99.90;;;;;;5032580;28;20022;-51
2024/01/02 02:44:44;;;;;;;1.05;0.30;;;8.00;99.90;;;;;;5033353;28;20032;-51
2024/01/02 02:47:10;;;;;;;1.73;0.40;;;8.00;99.90;;;;;;5034092;28;20501;-50
2024/01/02 02:49:37;;;;;;;2.97;0.32;;;8.10;99.90;;;;;;5033380;28;20486;-50
2024/01/02 02:52:03;;;;;;;1.85;0.95;;;8.00;99.90;;;;;;5033489;28;20026;-54
2024/01/02 02:54:28;;;;;;;0.17;0.17;;;8.10;99.90;;;;;;5033565;28;20439;-51
2024/01/02 02:56:54;;;;;;;0.65;0.30;;;8.10;99.90;;;;;;5033269;28;20556;-52
2024/01/02 02:59:19;;;;;;;2.47;0.30;;;8.20;99.90;;;;;;5040250;28;20477;-48
2024/01/02 03:01:45;;;;;;;1.92;0.35;;;8.20;99.90;;;;;;5040100;28;20515;-50
2024/01/02 03:04:11;;;;;;;0.68;0.22;;;8.20;99.90;;;;;;5033458;28;20032;-50
2024/01/02 03:06:36;;;;;;;3.05;0.30;;;8.20;99.90;;;;;;5033153;28;20018;-49
2024/01/02 03:09:03;;;;;;;0.20;0.20;;;8.20;99.90;;;;;;5033782;28;20021;-49
2024/01/02 03:11:29;;;;;;;2.00;0.40;;;8.20;99.90;;;;;;5033023;28;20478;-52
2024/01/02 03:13:55;;;;;;;1.17;0.28;;;8.20;99.90;;;;;;5030662;28;20485;-49
2024/01/02 03:16:23;;;;;;;0.20;0.10;;;8.20;99.90;;;;;;5033331;28;20107;-53
2024/01/02 03:18:48;;;;;;;0.38;0.20;;;8.30;99.90;;;;;;5032521;28;20497;-48
2024/01/02 03:21:14;;;;;;;1.55;0.25;;;8.30;99.90;;;;;;5032946;28;20124;-48
2024/01/02 03:23:40;;;;;;;3.72;0.13;;;8.30;99.90;;;;;;5032896;28;20082;-50
2024/01/02 03:26:06;;;;;;;0.15;0.15;;;8.30;99.90;;;;;;5032796;28;20434;-53
2024/01/02 03:28:32;;;;;;;1.48;0.40;;;8.30;99.90;;;;;;5033291;28;20029;-51
2024/01/02 03:30:58;;;;;;;0.20;0.20;;;8.30;99.90;;;;;;5033393;28;20024;-51
2024/01/02 03:33:23;;;;;;;3.72;0.20;;;8.30;99.90;;;;;;5033127;28;20029;-49
2024/01/02 03:35:49;;;;;;;2.17;0.20;;;8.30;99.90;;;;;;5032851;28;20417;-53
2024/01/02 03:38:15;;;;;;;0.95;0.30;;;8.20;99.90;;;;;;5032932;28;20096;-51
2024/01/02 03:40:41;;;;;;;0.17;0.17;;;8.20;99.90;;;;;;5032728;28;20072;-50
2024/01/02 03:43:07;;;;;;;3.33;0.25;;;8.20;99.90;;;;;;5033242;28;20107;-49
2024/01/02 03:45:33;;;;;;;0.20;0.20;;;8.30;99.90;;;;;;5032486;28;20489;-49
2024/01/02 03:48:00;;;;;;;0.30;0.30;;;8.30;99.90;;;;;;5029489;28;20022;-50
2024/01/02 03:50:26;;;;;;;1.07;0.30;;;8.30;99.90;;;;;;5020569;28;20083;-52
2024/01/02 03:52:51;;;;;;;0.20;0.20;;;8.30;99.90;;;;;;5029950;28;20030;-47
2024/01/02 03:55:17;;;;;;;0.60;0.20;;;8.40;99.90;;;;;;5016129;28;20112;-51
2024/01/02 03:57:43;;;;;;;0.20;0.20;;;8.40;99.90;;;;;;5031914;28;20053;-50
2024/01/02 04:00:09;;;;;;;0.20;0.20;;;8.40;99.90;;;;;;5012828;28;20026;-47
2024/01/02 04:02:35;;;;;;;0.30;0.13;;;8.40;99.90;;;;;;5025099;28;20405;-47
2024/01/02 04:05:02;;;;;;;0.30;0.30;;;8.40;99.90;;;;;;5032023;28;20067;-46
2024/01/02 04:07:27;;;;;;;1.03;1.03;;;8.40;99.90;;;;;;5032968;28;20474;-49
2024/01/02 04:09:53;;;;;;;0.28;0.28;;;8.50;99.90;;;;;;5032189;28;20032;-49
2024/01/02 04:12:19;;;;;;;2.28;1.00;;;8.50;99.90;;;;;;5032017;28;20030;-48
2024/01/02 04:14:44;;;;;;;0.30;0.20;;;8.50;99.90;;;;;;5032719;28;20033;-35
2024/01/02 04:17:10;;;;;;;0.30;0.30;;;8.50;99.90;;;;;;5032152;28;20037;-51
2024/01/02 04:19:35;;;;;;;0.40;0.40;;;8.50;99.90;;;;;;5032042;28;20033;-56
2024/01/02 04:22:01;;;;;;;0.28;0.28;;;8.70;99.90;;;;;;5032404;28;20036;-48
2024/01/02 04:24:27;;;;;;;0.15;0.15;;;8.70;99.90;;;;;;5032350;28;20403;-49
2024/01/02 04:26:53;;;;;;;0.20;0.20;;;8.70;99.90;;;;;;5031087;28;20028;-47
2024/01/02 04:29:18;;;;;;;0.57;0.20;;;8.80;99.90;;;;;;5032193;28;20100;-50
2024/01/02 04:31:44;;;;;;;0.68;0.28;;;8.80;99.90;;;;;;5032725;28;20056;-52
2024/01/02 04:34:10;;;;;;;0.20;0.20;;;8.80;99.90;;;;;;5014755;28;20032;-48
2024/01/02 04:36:35;;;;;;;0.10;0.10;;;8.80;99.90;;;;;;5032065;28;20084;-47
2024/01/02 04:39:03;;;;;;;0.30;0.30;;;8.90;99.90;;;;;;5032350;28;20482;-53
2024/01/02 04:41:28;;;;;;;0.10;0.10;;;8.80;99.90;;;;;;5032250;28;20053;-47
2024/01/02 04:43:54;;;;;;;0.38;0.38;;;8.90;99.90;;;;;;5031948;28;20029;-50
2024/01/02 04:46:20;;;;;;;0.32;0.20;;;8.90;99.90;;;;;;5032299;28;20417;-51
2024/01/02 04:48:45;;;;;;;0.28;0.28;;;9.00;99.90;;;;;;5032137;28;20075;-50
2024/01/02 04:51:11;;;;;;;0.40;0.40;;;9.00;99.90;;;;;;5032272;28;20401;-48
2024/01/02 04:53:36;;;;;;;0.43;0.43;;;9.10;99.90;;;;;;5031795;28;20021;-53
2024/01/02 04:56:02;;;;;;;0.30;0.30;;;9.20;99.90;;;;;;5031810;28;20120;-48
2024/01/02 04:58:28;;;;;;;0.30;0.30;;;9.20;99.90;;;;;;5033223;28;20390;-50
2024/01/02 05:00:54;;;;;;;0.30;0.30;;;9.30;99.90;;;;;;5050469;28;20033;-51
2024/01/02 05:03:20;;;;;;;0.30;0.30;;;9.40;99.90;;;;;;5035656;28;20052;-52
2024/01/02 05:08:30;;;;;;;0.50;0.50;;;9.50;99.90;;;;;;5035716;28;20045;-51
2024/01/02 05:10:55;;;;;;;0.80;0.80;;;9.50;99.90;;;;;;5035412;28;20022;-47
2024/01/02 05:13:21;;;;;;;0.77;0.77;;;9.50;99.90;;;;;;5035659;28;20025;-51
2024/01/02 05:15:46;;;;;;;0.70;0.70;;;9.60;99.90;;;;;;5035874;28;20462;-51
2024/01/02 05:18:12;;;;;;;0.75;0.75;;;9.70;99.90;;;;;;5035111;28;20043;-51
2024/01/02 05:20:38;;;;;;;0.85;0.85;;;9.80;99.90;;;;;;5035635;28;20612;-48
2024/01/02 05:23:04;;;;;;;0.82;0.82;;;9.80;99.90;;;;;;5035255;28;20022;-49
2024/01/02 05:25:31;;;;;;;;;;;9.90;99.90;;;;;;5036041;28;20421;-47
2024/01/02 05:27:57;;;;;;;0.88;0.88;;;10.00;99.90;;;;;;5035229;28;19955;-51
2024/01/02 05:30:22;;;;;;;1.65;0.80;;;10.10;99.90;;;;;;5034149;28;20068;-52
2024/01/02 05:32:48;;;;;;;1.63;0.90;;;10.10;99.90;;;;;;5035490;28;20009;-50
2024/01/02 05:35:14;;;;;;;0.57;0.57;;;10.10;99.90;;;;;;5033976;28;20030;-49
2024/01/02 05:37:39;;;;;;;0.88;0.88;;;10.20;99.90;;;;;;5034893;28;20040;-51
2024/01/02 05:40:07;;;;;;;1.42;0.73;;;10.30;99.90;;;;;;5034814;28;20033;-53
2024/01/02 05:42:32;;;;;;;0.82;0.80;;;10.30;99.90;;;;;;5034704;28;20363;-52
2024/01/02 05:44:58;;;;;;;0.70;0.70;;;10.40;99.90;;;;;;5034547;28;20108;-49
2024/01/02 05:47:24;;;;;;;1.02;0.93;;;10.50;99.90;;;;;;5034560;28;20094;-36
2024/01/02 05:49:49;;;;;;;0.68;0.68;;;10.50;99.90;;;;;;5034989;28;20021;-35
2024/01/02 05:52:16;;;;;;;1.30;0.80;;;10.50;99.90;;;;;;5034855;28;20036;-35
2024/01/02 05:54:41;;;;;;;3.33;0.80;;;10.50;99.90;;;;;;5034616;28;20021;-35
2024/01/02 05:57:07;;;;;;;1.10;0.90;;;10.60;99.90;;;;;;5034841;28;20529;-52
2024/01/02 05:59:34;;;;;;;4.63;1.20;;;10.60;99.90;;;;;;5042999;28;20021;-52
2024/01/02 06:01:59;;;;;;;2.97;2.15;;;10.60;99.90;;;;;;5038732;28;20481;-48
2024/01/02 06:04:25;;;;;;;1.38;0.90;;;10.70;99.90;;;;;;5034253;28;20034;-51
2024/01/02 06:06:50;;;;;;;1.25;1.15;;;10.70;99.90;;;;;;5034074;28;20017;-50
2024/01/02 06:09:16;;;;;;;2.63;1.08;;;10.70;99.90;;;;;;5034251;28;20389;-49
2024/01/02 06:11:42;;;;;;;2.75;1.23;;;10.80;99.90;;;;;;5033812;28;20021;-49
2024/01/02 06:14:08;;;;;;;4.72;1.75;;;10.80;99.90;;;;;;5034498;28;20394;-52
2024/01/02 06:16:34;;;;;;;12.50;2.20;;;10.90;99.90;;;;;;5034157;28;20095;-57
2024/01/02 06:19:00;;;;;;;10.77;2.28;;;10.90;99.90;;;;;;5034139;28;20068;-52
2024/01/02 06:21:25;;;;;;;8.77;1.45;;;10.90;99.90;;;;;;5034412;28;20473;-47
2024/01/02 06:23:51;;;;;;;8.68;1.33;;;11.00;99.90;;;;;;5034228;28;20033;-51
2024/01/02 06:26:17;;;;;;;9.10;1.42;;;11.00;99.90;;;;;;5034318;28;20029;-53
2024/01/02 06:28:42;;;;;;;13.43;1.80;;;11.10;99.90;;;;;;5034209;28;20479;-54
2024/01/02 06:31:08;;;;;;;6.85;1.90;;;11.10;99.90;;;;;;5033913;28;20104;-52
2024/01/02 06:33:34;;;;;;;10.30;1.67;;;11.10;99.90;;;;;;5034061;28;20028;-52
2024/01/02 06:35:59;;;;;;;21.38;2.90;;;11.20;99.90;;;;;;5033932;28;20033;-52
2024/01/02 06:38:26;;;;;;;10.18;2.13;;;11.20;99.90;;;;;;5034229;28;20025;-51
2024/01/02 06:40:51;;;;;;;10.60;2.00;;;11.30;99.90;;;;;;5033712;28;20022;-51
2024/01/02 06:43:17;;;;;;;11.00;1.42;;;11.20;99.90;;;;;;5033962;28;20074;-52
2024/01/02 06:45:43;;;;;;;19.98;2.83;;;11.30;99.90;;;;;;5034118;28;20132;-53
2024/01/02 06:48:09;;;;;;;21.88;2.90;;;11.40;99.90;;;;;;5034108;28;20031;-52
2024/01/02 06:50:34;;;;;;;9.57;1.30;;;11.40;99.90;;;;;;5033548;28;20032;-52
2024/01/02 06:53:00;;;;;;;9.35;1.58;;;11.50;99.90;;;;;;5033552;28;20389;-52
2024/01/02 06:55:26;;;;;;;11.20;1.48;;;11.60;99.90;;;;;;5033740;28;20528;-52
2024/01/02 06:57:52;;;;;;;16.65;1.85;;;11.60;99.90;;;;;;5033683;28;20025;-47
2024/01/02 07:00:18;;;;;;;10.38;1.27;;;11.60;99.90;;;;;;5048329;28;20036;-51
2024/01/02 07:02:43;;;;;;;20.85;1.90;;;11.60;99.90;;;;;;5034218;28;20481;-51
2024/01/02 07:05:15;;;;;;;14.02;2.00;;;11.60;99.90;;;;;;5033601;28;20478;-53
2024/01/02 07:07:41;;;;;;;16.40;1.92;;;11.60;99.90;;;;;;5033289;28;20033;-38
2024/01/02 07:10:07;;;;;;;25.58;2.10;;;11.60;99.90;;;;;;5033310;28;20060;-40
2024/01/02 07:12:33;;;;;;;16.38;1.85;;;11.60;99.90;;;;;;5033096;28;20033;-39
2024/01/02 07:14:58;;;;;;;19.90;2.42;;;11.60;99.90;;;;;;5033384;28;20029;-39
2024/01/02 07:17:25;;;;;;;19.70;2.42;;;11.60;99.90;;;;;;5033585;28;20112;-37
2024/01/02 07:19:51;;;;;;;17.52;2.42;;;11.70;99.90;;;;;;5032823;28;20045;-41
2024/01/02 07:22:17;;;;;;;20.00;3.17;;;11.70;99.90;;;;;;5032173;28;20057;-39
2024/01/02 07:24:44;;;;;;;21.00;2.17;;;11.70;99.90;;;;;;5033004;28;20565;-37
2024/01/02 07:27:09;;;;;;;17.55;4.22;;;11.70;99.90;;;;;;5032875;28;20022;-38
2024/01/02 07:29:35;;;;;;;15.20;2.25;;;11.80;99.90;;;;;;5032957;28;20484;-38
2024/01/02 07:32:01;;;;;;;11.10;2.25;;;11.80;99.90;;;;;;5020611;28;20471;-38
2024/01/02 07:34:27;;;;;;;25.23;2.38;;;11.80;99.90;;;;;;5013541;28;20438;-40
2024/01/02 07:36:52;;;;;;;19.50;3.03;;;11.70;99.90;;;;;;5029536;28;20033;-40
2024/01/02 07:39:18;;;;;;;18.02;2.35;;;11.70;99.90;;;;;;5032808;28;20075;-38
2024/01/02 07:41:44;;;;;;;32.45;2.65;;;11.70;99.90;;;;;;5032968;28;20158;-37
2024/01/02 07:44:10;;;;;;;17.25;2.80;;;11.70;99.90;;;;;;5032451;28;20543;-40
2024/01/02 07:46:36;;;;;;;24.15;2.55;;;11.60;99.90;;;;;;5031435;28;20482;-36
2024/01/02 07:49:02;;;;;;;15.45;1.45;;;11.60;99.90;;;;;;5032934;28;20025;-40
2024/01/02 07:51:28;;;;;;;19.98;2.60;;;11.70;99.90;;;;;;5032685;28;20025;-38
2024/01/02 07:53:53;;;;;;;15.07;2.00;;;11.70;99.90;;;;;;5033085;28;20088;-39
2024/01/02 07:56:20;;;;;;;15.48;2.22;;;11.80;99.90;;;;;;5032568;28;20022;-38
2024/01/02 07:58:48;;;;;;;17.20;2.70;;;11.80;99.90;;;;;;5032815;28;20025;-38
2024/01/02 08:01:15;;;;;;;18.15;2.67;;;11.80;99.90;;;;;;5032441;28;20029;-39
2024/01/02 08:03:41;;;;;;;23.48;3.17;;;11.80;99.90;;;;;;5032230;28;20025;-37
2024/01/02 08:06:07;;;;;;;27.05;2.85;;;11.80;99.90;;;;;;5032568;28;20382;-38
2024/01/02 08:08:32;;;;;;;22.45;3.33;;;11.80;99.90;;;;;;5032332;28;20036;-38
2024/01/02 08:10:58;;;;;;;26.27;2.47;;;11.80;99.90;;;;;;5031179;28;20143;-38
2024/01/02 08:13:23;;;;;;;22.17;2.95;;;11.80;99.90;;;;;;5032879;28;20021;-37
2024/01/02 08:15:49;;;;;;;17.65;3.10;;;11.70;99.90;;;;;;5032435;28;20033;-36
2024/01/02 08:18:15;;;;;;;20.73;2.75;;;11.70;99.90;;;;;;5032505;28;20614;-36
2024/01/02 08:20:40;;;;;;;20.48;2.90;;;11.70;99.90;;;;;;5030781;28;20021;-36
2024/01/02 08:23:07;;;;;;;20.25;2.80;;;11.70;99.90;;;;;;5032341;28;20474;-37
2024/01/02 08:25:33;;;;;;;28.63;2.83;;;11.70;99.90;;;;;;5032481;28;20027;-37
2024/01/02 08:27:59;;;;;;;24.85;3.13;;;11.70;99.90;;;;;;5032492;28;20028;-36
2024/01/02 08:30:25;;;;;;;27.05;2.90;;;11.80;99.90;;;;;;5031862;28;20148;-37
2024/01/02 08:32:50;;;;;;;28.38;4.28;;;11.70;99.90;;;;;;5032515;28;20486;-39
2024/01/02 08:35:16;;;;;;;25.60;3.35;;;11.70;99.90;;;;;;5035926;28;20485;-38
2024/01/02 08:37:43;;;;;;;22.55;3.08;;;11.80;99.90;;;;;;5036080;28;20033;-35
2024/01/02 08:40:10;;;;;;;26.77;2.95;;;11.80;99.90;;;;;;5036286;28;20032;-37
2024/01/02 08:42:36;;;;;;;30.13;3.70;;;11.80;99.90;;;;;;5036273;28;20494;-37
2024/01/02 08:45:03;;;;;;;21.33;2.50;;;11.80;99.90;;;;;;5035879;28;20025;-37
2024/01/02 08:47:29;;;;;;;14.13;2.67;;;11.80;99.90;;;;;;5035873;28;20040;-38
2024/01/02 08:49:54;;;;;;;24.42;2.95;;;11.80;99.90;;;;;;5036103;28;20470;-37
2024/01/02 08:52:20;;;;;;;13.18;2.95;;;11.80;99.90;;;;;;5035142;28;20448;-37
2024/01/02 08:54:46;;;;;;;29.05;4.68;;;11.80;99.90;;;;;;5036079;28;20033;-37
2024/01/02 08:57:11;;;;;;;17.10;2.28;;;11.80;99.90;;;;;;5035700;28;20036;-38
2024/01/02 08:59:37;;;;;;;30.45;3.10;;;11.80;99.90;;;;;;5035938;28;20393;-36
2024/01/02 09:02:03;;;;;;;22.88;3.20;;;11.80;99.90;;;;;;5030108;28;20048;-38
2024/01/02 09:04:28;;;;;;;17.42;3.17;;;11.80;99.90;;;;;;5035484;28;20117;-34
2024/01/02 09:06:54;;;;;;;16.58;1.77;;;11.80;99.90;;;;;;5034903;28;20105;-36
2024/01/02 09:09:20;;;;;;;21.58;3.58;;;11.90;99.90;;;;;;5035614;28;20021;-36
2024/01/02 09:11:46;;;;;;;18.65;2.03;;;11.90;99.90;;;;;;5035163;28;20029;-36
2024/01/02 09:14:12;;;;;;;19.20;2.70;;;11.90;99.90;;;;;;5035934;28;20032;-37
2024/01/02 09:16:38;;;;;;;19.58;2.45;;;11.90;99.90;;;;;;5035219;28;20460;-36
2024/01/02 09:19:04;;;;;;;32.65;4.70;;;11.90;99.90;;;;;;5035245;28;20124;-36
2024/01/02 09:21:30;;;;;;;27.88;3.70;;;11.90;99.90;;;;;;5035224;28;20132;-36
2024/01/02 09:23:56;;;;;;;22.05;2.72;;;11.90;99.90;;;;;;5035093;28;20025;-36
2024/01/02 09:26:23;;;;;;;19.13;2.80;;;11.90;99.90;;;;;;5027906;28;20026;-36
2024/01/02 09:28:49;;;;;;;10.55;1.40;;;11.90;99.90;;;;;;5015578;28;20014;-36
2024/01/02 09:31:15;;;;;;;19.98;3.55;;;11.90;99.90;;;;;;5015543;28;20017;-37
2024/01/02 09:33:45;;;;;;;26.00;4.22;;;11.90;99.90;;;;;;5025899;28;20026;-36
2024/01/02 09:36:13;;;;;;;22.77;3.28;;;12.00;99.90;;;;;;5035056;28;20087;-37
2024/01/02 09:38:39;;;;;;;;;;;12.00;99.90;;;;;;5035392;28;20033;-36
2024/01/02 09:41:26;;;;;;;37.28;4.55;;;12.00;99.90;;;;;;5035088;28;20281;-37
2024/01/02 09:44:03;;;;;;;27.05;3.22;;;12.20;99.90;;;;;;5031631;28;20033;-36
2024/01/02 09:46:37;;;;;;;33.45;4.53;;;12.20;99.90;;;;;;5031497;28;20029;-37
2024/01/02 09:49:24;;;;;;;33.50;5.65;;;12.20;99.90;;;;;;5034613;28;20021;-37
2024/01/02 09:52:05;;;;;;;22.58;3.58;;;12.20;99.90;;;;;;5035263;28;20030;-35
2024/01/02 09:54:44;;;;;;;27.83;3.47;;;12.20;99.90;;;;;;5034898;28;20021;-36
2024/01/02 09:58:01;;;;;;;44.13;4.35;;;12.20;99.90;;;;;;5034461;28;20120;-36
2024/01/02 10:00:38;;;;;;;24.98;3.80;;;12.30;99.90;;;;;;5013534;28;20644;-34
2024/01/02 10:03:10;;;;;;;27.63;4.05;;;12.30;99.90;;;;;;5030246;28;20034;-34
2024/01/02 10:05:57;;;;;;;29.38;3.50;;;12.30;99.90;;;;;;5034181;28;20048;-35
2024/01/02 10:08:23;;;;;;;27.65;3.60;;;12.30;99.90;;;;;;5034676;28;20017;-34
2024/01/02 10:10:55;;;;;;;26.40;3.10;;;12.30;99.90;;;;;;5034252;28;20589;-37
2024/01/02 10:13:27;;;;;;;33.15;4.15;;;12.40;99.90;;;;;;5033179;28;20075;-38
2024/01/02 10:16:09;;;;;;;20.13;2.95;;;12.40;99.90;;;;;;5034109;28;20497;-35
2024/01/02 10:18:43;;;;;;;17.48;3.22;;;12.40;99.90;;;;;;5033925;28;20501;-36
2024/01/02 10:21:20;;;;;;;17.77;3.10;;;12.40;99.90;;;;;;5031182;28;20029;-35
2024/01/02 10:24:12;;;;;;;19.55;4.35;;;12.40;99.90;;;;;;5014629;28;20037;-34
2024/01/02 10:26:44;;;;;;;21.13;2.55;;;12.40;99.90;;;;;;5033982;28;20101;-35
2024/01/02 10:29:17;;;;;;;17.40;3.08;;;12.40;99.90;;;;;;5033941;28;20028;-35
2024/01/02 10:32:03;;;;;;;21.38;3.10;;;12.50;99.90;;;;;;5034625;28;20544;-35
2024/01/02 10:35:03;;;;;;;11.02;2.17;;;12.50;99.90;;;;;;5033978;28;20025;-35
2024/01/02 10:37:38;;;;;;;7.88;1.70;;;12.40;99.90;;;;;;5034178;28;20079;-36
2024/01/02 10:40:12;;;;;;;12.52;2.13;;;12.50;99.90;;;;;;5033563;28;20029;-36
2024/01/02 10:42:51;;;;;;;16.00;2.40;;;12.50;99.90;;;;;;5031114;28;20462;-37
2024/01/02 10:45:29;;;;;;;13.88;2.20;;;12.60;99.90;;;;;;5033912;28;20030;-38
2024/01/02 10:48:13;;;;;;;23.52;3.22;;;12.60;99.90;;;;;;5031941;28;20026;-35
2024/01/02 10:50:43;;;;;;;13.75;2.05;;;12.60;99.90;;;;;;5026878;28;20398;-34
2024/01/02 10:53:12;;;;;;;9.93;1.80;;;12.60;99.90;;;;;;5033858;28;20413;-35
2024/01/02 10:55:56;;;;;;;13.35;2.38;;;12.60;99.90;;;;;;5033409;28;20032;-36
2024/01/02 10:58:33;;;;;;;8.88;2.22;;;12.60;99.90;;;;;;5033581;28;20029;-35
2024/01/02 11:01:09;;;;;;;9.63;1.98;;;12.50;99.90;;;;;;5033435;28;20017;-36
2024/01/02 11:03:44;;;;;;;6.78;2.08;;;12.50;99.90;;;;;;5019099;28;20497;-35
2024/01/02 11:06:17;;;;;;;11.07;1.80;;;12.60;99.90;;;;;;5033075;28;20029;-36
2024/01/02 11:09:06;;;;;;;6.72;1.60;;;12.50;99.90;;;;;;5033317;28;20048;-36
2024/01/02 11:11:36;;;;;;;5.30;1.85;;;12.50;99.90;;;;;;5033525;28;20032;-36
2024/01/02 11:14:03;;;;;;;6.82;2.17;;;12.50;99.90;;;;;;5033046;28;20029;-36
2024/01/02 11:16:29;;;;;;;7.07;1.75;;;12.50;99.90;;;;;;5033630;28;20516;-36
2024/01/02 11:18:59;;;;;;;3.40;2.30;;;12.50;99.90;;;;;;5026810;28;20061;-36
2024/01/02 11:21:40;;;;;;;9.63;2.53;;;12.60;99.90;;;;;;5012227;28;20021;-35
2024/01/02 11:24:07;;;;;;;2.92;1.90;;;12.60;99.90;;;;;;5031024;28;20027;-36
2024/01/02 11:26:41;;;;;;;6.70;2.60;;;12.50;99.90;;;;;;5033106;28;20079;-36
2024/01/02 11:29:14;;;;;;;4.03;2.10;;;12.60;99.90;;;;;;5031968;28;20025;-35
2024/01/02 11:31:40;;;;;;;3.20;2.50;;;12.50;99.90;;;;;;5032682;28;20017;-38
2024/01/02 11:34:36;;;;;;;5.22;2.70;;;12.50;99.90;;;;;;5032844;28;20104;-36
2024/01/02 11:37:10;;;;;;;5.20;2.70;;;12.50;99.90;;;;;;5033110;28;20413;-34
2024/01/02 11:40:03;;;;;;;2.90;2.70;;;12.50;99.90;;;;;;5032782;28;20060;-37
2024/01/02 11:42:43;;;;;;;3.20;2.90;;;12.50;99.90;;;;;;5031630;28;20038;-35
2024/01/02 11:45:22;;;;;;;3.45;2.72;;;12.40;99.90;;;;;;5032933;28;20112;-35
2024/01/02 11:48:03;;;;;;;2.78;2.58;;;12.50;99.90;;;;;;5032941;28;20072;-36
2024/01/02 11:50:49;;;;;;;7.38;2.75;;;12.40;99.90;;;;;;5032209;28;20363;-35
2024/01/02 11:53:43;;;;;;;4.78;2.83;;;12.40;99.90;;;;;;5032392;28;20140;-36
2024/01/02 11:56:12;;;;;;;4.70;3.45;;;12.40;99.90;;;;;;5030652;28;20033;-35
2024/01/02 11:59:04;;;;;;;7.65;3.80;;;12.30;99.90;;;;;;5027359;28;20474;-35
2024/01/02 12:01:38;;;;;;;4.85;3.30;;;12.30;99.90;;;;;;5016199;28;20025;-36
2024/01/02 12:04:18;;;;;;;3.72;3.08;;;12.20;99.90;;;;;;5032357;28;20022;-35
2024/01/02 12:07:03;;;;;;;3.22;2.90;;;12.20;99.90;;;;;;5032727;28;20036;-36
2024/01/02 12:09:35;;;;;;;2.53;2.33;;;12.20;99.90;;;;;;5035401;28;20033;-35
2024/01/02 12:12:31;;;;;;;2.90;2.60;;;12.10;99.90;;;;;;5036768;28;20108;-35
2024/01/02 12:15:26;;;;;;;2.70;2.40;;;12.10;99.90;;;;;;5045166;28;20498;-36
2024/01/02 12:18:05;;;;;;;2.17;1.98;;;12.10;99.90;;;;;;5015682;28;20046;-35
2024/01/02 12:21:23;;;;;;;3.03;2.35;;;12.00;99.90;;;;;;5036381;28;20517;-34
2024/01/02 12:23:50;;;;;;;1.73;1.17;;;12.00;99.90;;;;;;5034603;28;20536;-35
2024/01/02 12:26:21;;;;;;;2.53;1.30;;;12.00;99.90;;;;;;5036761;28;20049;-35
2024/01/02 12:28:47;;;;;;;1.20;1.10;;;12.00;99.90;;;;;;5036536;28;20017;-35
2024/01/02 12:31:46;;;;;;;4.60;2.25;;;12.00;99.90;;;;;;5035819;28;20031;-35
2024/01/02 12:34:45;;;;;;;0.70;0.70;;;11.90;99.90;;;;;;5035019;28;20068;-35
2024/01/02 12:37:27;;;;;;;0.90;0.57;;;11.90;99.90;;;;;;5036571;28;20539;-35
2024/01/02 12:39:55;;;;;;;0.60;0.60;;;11.90;99.90;;;;;;5020354;28;20030;-35
2024/01/02 12:42:25;;;;;;;0.30;0.30;;;11.90;99.90;;;;;;5035022;28;20029;-36
2024/01/02 12:44:53;;;;;;;0.50;0.50;;;11.90;99.90;;;;;;5033318;28;20103;-37
2024/01/02 12:47:22;;;;;;;0.30;0.30;;;11.80;99.90;;;;;;5036106;28;20501;-35
2024/01/02 12:50:00;;;;;;;1.23;1.10;;;11.80;99.90;;;;;;5035420;28;20053;-35
2024/01/02 12:52:29;;;;;;;0.30;0.30;;;11.80;99.90;;;;;;5034809;28;20064;-36
2024/01/02 12:54:57;;;;;;;4.20;3.20;;;11.80;99.90;;;;;;5036026;28;20036;-36
2024/01/02 12:57:23;;;;;;;9.45;8.45;;;11.70;99.90;;;;;;5036263;28;20501;-35
2024/01/02 12:59:51;;;;;;;0.70;0.70;;;11.80;99.90;;;;;;5035977;28;20045;-35